createdAt,value
2023-03-24T00:02:14.279Z,100862.75
2023-03-24T00:07:17.237Z,100841.59
2023-03-24T00:12:19.400Z,100839.16
2023-03-24T00:17:25.745Z,100844.75
2023-03-24T00:22:28.790Z,100833.84
2023-03-24T00:27:31.842Z,100831.47
2023-03-24T00:32:34.026Z,100820.31
2023-03-24T00:37:38.003Z,100834.38
2023-03-24T00:42:41.869Z,100815.81
2023-03-24T00:47:45.194Z,100819.59
2023-03-24T00:52:49.463Z,100830.53
2023-03-24T00:57:51.746Z,100812.84
2023-03-24T01:02:57.782Z,100823.66
2023-03-24T01:08:04.196Z,100818.31
2023-03-24T01:13:07.127Z,100811.28
2023-03-24T01:18:10.134Z,100790.81
2023-03-24T01:23:17.838Z,100796.53
2023-03-24T01:28:25.166Z,100808.75
2023-03-24T01:33:27.578Z,100799.50
2023-03-24T01:38:29.752Z,100797.06
2023-03-24T01:43:34.035Z,100783.75
2023-03-24T01:48:42.377Z,100793.56
2023-03-24T01:53:56.313Z,100806.06
2023-03-24T01:59:04.055Z,100787.63
2023-03-24T02:04:08.317Z,100782.66
2023-03-24T02:09:12.828Z,100781.97
2023-03-24T02:14:15.002Z,100771.44
2023-03-24T02:19:38.493Z,100794.63
2023-03-24T02:25:07.398Z,100789.94
2023-03-24T02:30:24.622Z,100797.28
2023-03-24T02:35:59.539Z,100795.88
2023-03-24T02:41:21.956Z,100786.16
2023-03-24T02:46:33.614Z,100791.69
2023-03-24T02:51:42.668Z,100787.84
2023-03-24T02:56:53.395Z,100792.88
2023-03-24T03:02:07.597Z,100789.19
2023-03-24T03:07:12.022Z,100775.94
2023-03-24T03:12:15.632Z,100768.69
2023-03-24T03:17:23.842Z,100789.78
2023-03-24T03:22:33.352Z,100771.75
2023-03-24T03:27:39.448Z,100779.47
2023-03-24T03:32:54.693Z,100759.19
2023-03-24T03:38:00.814Z,100794.88
2023-03-24T03:43:04.911Z,100789.50
2023-03-24T03:48:07.299Z,100783.31
2023-03-24T03:53:10.365Z,100791.63
2023-03-24T03:58:12.973Z,100783.63
2023-03-24T04:03:45.657Z,100776.69
2023-03-24T04:08:57.176Z,100805.94
2023-03-24T04:14:35.133Z,100806.44
2023-03-24T04:19:56.194Z,100817.13
2023-03-24T04:25:04.333Z,100813.25
2023-03-24T04:30:37.621Z,100802.25
2023-03-24T04:35:50.003Z,100800.53
2023-03-24T04:40:56.016Z,100810.00
2023-03-24T04:45:58.304Z,100803.53
2023-03-24T04:51:03.843Z,100824.69
2023-03-24T04:56:24.221Z,100827.06
2023-03-24T05:01:30.813Z,100808.19
2023-03-24T05:06:33.797Z,100830.44
2023-03-24T05:11:35.969Z,100831.34
2023-03-24T05:16:38.330Z,100848.69
2023-03-24T05:21:40.595Z,100827.59
2023-03-24T05:26:42.747Z,100842.78
2023-03-24T05:31:45.443Z,100861.94
2023-03-24T05:36:47.601Z,100866.00
2023-03-24T05:41:49.815Z,100855.75
2023-03-24T05:46:51.905Z,100855.16
2023-03-24T05:51:54.073Z,100858.97
2023-03-24T05:56:56.401Z,100855.44
2023-03-24T06:01:58.790Z,100861.09
2023-03-24T06:07:01.235Z,100852.06
2023-03-24T06:12:04.797Z,100862.75
2023-03-24T06:17:08.521Z,100855.72
2023-03-24T06:22:10.762Z,100839.53
2023-03-24T06:27:14.564Z,100855.31
2023-03-24T06:32:21.723Z,100859.19
2023-03-24T06:37:24.436Z,100880.34
2023-03-24T06:42:27.487Z,100861.81
2023-03-24T06:47:30.094Z,100863.72
2023-03-24T06:52:32.324Z,100869.22
2023-03-24T06:57:34.497Z,100853.03
2023-03-24T07:02:36.723Z,100870.47
2023-03-24T07:08:16.733Z,100873.81
2023-03-24T07:13:03.645Z,100877.44
2023-03-24T07:18:05.942Z,100867.25
2023-03-24T07:23:08.369Z,100875.88
2023-03-24T07:28:10.805Z,100875.09
2023-03-24T07:33:12.984Z,100897.38
2023-03-24T07:38:15.144Z,100899.31
2023-03-24T07:43:17.535Z,100899.03
2023-03-24T07:48:20.536Z,100875.06
2023-03-24T07:53:23.548Z,100882.75
2023-03-24T07:58:27.231Z,100902.06
2023-03-24T08:03:30.129Z,100887.56
2023-03-24T08:08:32.561Z,100871.81
2023-03-24T08:13:34.785Z,100869.41
2023-03-24T08:18:39.160Z,100867.97
2023-03-24T08:23:41.822Z,100871.31
2023-03-24T08:28:44.107Z,100846.19
2023-03-24T08:33:46.576Z,100875.91
2023-03-24T08:38:53.039Z,100851.97
2023-03-24T08:43:55.158Z,100862.09
2023-03-24T08:48:58.397Z,100855.28
2023-03-24T08:54:02.033Z,100860.41
2023-03-24T08:59:04.927Z,100863.31
2023-03-24T09:04:07.057Z,100833.34
2023-03-24T09:09:09.190Z,100857.66
2023-03-24T09:14:11.288Z,100841.13
2023-03-24T09:19:13.489Z,100862.19
2023-03-24T09:24:15.996Z,100830.81
2023-03-24T09:29:19.195Z,100826.59
2023-03-24T09:34:21.936Z,100843.81
2023-03-24T09:39:24.214Z,100828.03
2023-03-24T09:44:32.016Z,100829.03
2023-03-24T09:49:39.016Z,100813.25
2023-03-24T09:54:56.574Z,100827.59
2023-03-24T09:59:58.923Z,100825.81
2023-03-24T10:05:01.256Z,100832.13
2023-03-24T10:10:15.509Z,100804.41
2023-03-24T10:15:40.381Z,100823.88
2023-03-24T10:20:52.017Z,100818.84
2023-03-24T10:26:29.560Z,100795.53
2023-03-24T10:31:35.264Z,100797.06
2023-03-24T10:36:38.773Z,100787.63
2023-03-24T10:41:42.701Z,100800.13
2023-03-24T10:46:48.634Z,100783.88
2023-03-24T10:51:53.153Z,100757.75
2023-03-24T10:56:58.468Z,100775.13
2023-03-24T11:02:15.937Z,100755.81
2023-03-24T11:07:37.659Z,100758.41
2023-03-24T11:13:03.224Z,100762.56
2023-03-24T11:18:11.213Z,100753.56
2023-03-24T11:23:29.962Z,100730.97
2023-03-24T11:28:39.096Z,100718.03
2023-03-24T11:34:03.198Z,100724.84
2023-03-24T11:39:21.712Z,100709.66
2023-03-24T11:44:25.967Z,100704.34
2023-03-24T11:49:37.252Z,100672.69
2023-03-24T11:54:40.043Z,100694.06
2023-03-24T12:00:09.257Z,100659.78
2023-03-24T12:05:29.328Z,100654.31
2023-03-24T12:10:57.292Z,100653.53
2023-03-24T12:16:21.937Z,100639.16
2023-03-24T12:21:50.244Z,100633.53
2023-03-24T12:26:58.819Z,100630.09
2023-03-24T12:32:54.420Z,100623.13
2023-03-24T12:38:08.988Z,100606.56
2023-03-24T12:43:55.260Z,100601.94
2023-03-24T12:49:04.181Z,100608.63
2023-03-24T12:54:26.315Z,100596.53
2023-03-24T12:59:36.796Z,100573.66
2023-03-24T13:04:43.061Z,100583.06
2023-03-24T13:10:05.397Z,100577.53
2023-03-24T13:15:19.143Z,100546.72
2023-03-24T13:20:54.180Z,100566.66
2023-03-24T13:26:05.191Z,100566.50
2023-03-24T13:31:09.853Z,100555.88
2023-03-24T13:36:30.438Z,100546.88
2023-03-24T13:41:38.018Z,100537.09
2023-03-24T13:46:42.121Z,100513.81
2023-03-24T13:51:46.794Z,100505.28
2023-03-24T13:57:04.121Z,100507.72
2023-03-24T14:02:31.833Z,100505.75
2023-03-24T14:07:45.172Z,100471.84
2023-03-24T14:12:59.336Z,100484.97
2023-03-24T14:18:26.265Z,100480.56
2023-03-24T14:23:47.132Z,100458.81
2023-03-24T14:28:57.812Z,100469.69
2023-03-24T14:34:17.619Z,100473.06
2023-03-24T14:39:48.008Z,100465.50
2023-03-24T14:44:51.577Z,100459.50
2023-03-24T14:49:58.003Z,100456.09
2023-03-24T14:55:06.329Z,100440.06
2023-03-24T15:00:36.975Z,100443.69
2023-03-24T15:05:39.200Z,100426.72
2023-03-24T15:10:47.305Z,100437.91
2023-03-24T15:15:49.683Z,100432.72
2023-03-24T15:20:53.364Z,100423.38
2023-03-24T15:25:56.351Z,100397.50
2023-03-24T15:31:02.637Z,100417.16
2023-03-24T15:36:13.636Z,100397.63
2023-03-24T15:41:18.197Z,100402.50
2023-03-24T15:46:31.983Z,100397.81
2023-03-24T15:51:52.136Z,100419.81
2023-03-24T15:57:12.251Z,100402.84
2023-03-24T16:02:26.471Z,100405.53
2023-03-24T16:07:35.893Z,100403.66
2023-03-24T16:12:38.376Z,100414.16
2023-03-24T16:17:40.925Z,100421.63
2023-03-24T16:22:43.085Z,100434.84
2023-03-24T16:27:45.476Z,100439.94
2023-03-24T16:32:48.063Z,100419.22
2023-03-24T16:37:50.896Z,100428.63
2023-03-24T16:42:53.808Z,100432.44
2023-03-24T16:47:56.090Z,100433.34
2023-03-24T16:52:58.336Z,100442.97
2023-03-24T16:58:00.809Z,100439.81
2023-03-24T17:03:04.733Z,100453.34
2023-03-24T17:08:07.227Z,100436.00
2023-03-24T17:13:16.919Z,100452.34
2023-03-24T17:18:19.978Z,100452.91
2023-03-24T17:23:22.316Z,100459.22
2023-03-24T17:28:24.437Z,100449.78
2023-03-24T17:33:26.590Z,100468.38
2023-03-24T17:38:28.866Z,100486.78
2023-03-24T17:43:31.566Z,100479.03
2023-03-24T17:48:34.871Z,100487.53
2023-03-24T17:53:37.080Z,100481.78
2023-03-24T17:58:39.308Z,100495.09
2023-03-24T18:03:43.241Z,100492.16
2023-03-24T18:08:51.628Z,100479.06
2023-03-24T18:13:53.765Z,100490.81
2023-03-24T18:18:56.106Z,100491.59
2023-03-24T18:23:58.585Z,100498.25
2023-03-24T18:29:01.174Z,100485.53
2023-03-24T18:34:04.291Z,100496.91
2023-03-24T18:39:08.996Z,100507.25
2023-03-24T18:44:15.555Z,100513.47
2023-03-24T18:49:18.045Z,100516.13
2023-03-24T18:54:20.133Z,100497.66
2023-03-24T18:59:22.427Z,100521.31
2023-03-24T19:04:25.734Z,100507.47
2023-03-24T19:09:29.304Z,100526.78
2023-03-24T19:14:31.940Z,100536.59
2023-03-24T19:19:34.210Z,100531.78
2023-03-24T19:24:36.466Z,100540.25
2023-03-24T19:29:38.630Z,100532.50
2023-03-24T19:34:40.718Z,100528.38
2023-03-24T19:39:42.899Z,100528.81
2023-03-24T19:44:45.203Z,100531.06
2023-03-24T19:49:47.810Z,100517.75
2023-03-24T19:54:51.131Z,100542.19
2023-03-24T19:59:53.380Z,100550.03
2023-03-24T20:04:55.758Z,100531.28
2023-03-24T20:09:57.979Z,100546.16
2023-03-24T20:15:00.076Z,100530.06
2023-03-24T20:20:02.349Z,100526.00
2023-03-24T20:25:05.207Z,100542.75
2023-03-24T20:30:08.726Z,100561.59
2023-03-24T20:35:11.619Z,100554.72
2023-03-24T20:40:13.860Z,100546.00
2023-03-24T20:45:16.303Z,100539.63
2023-03-24T20:50:19.469Z,100553.94
2023-03-24T20:55:21.943Z,100531.78
2023-03-24T21:00:24.678Z,100535.38
2023-03-24T21:05:27.557Z,100524.78
2023-03-24T21:10:30.452Z,100537.06
2023-03-24T21:15:32.562Z,100520.53
2023-03-24T21:20:34.790Z,100544.97
2023-03-24T21:25:37.831Z,100540.59
2023-03-24T21:30:40.277Z,100543.72
2023-03-24T21:35:42.448Z,100518.13
2023-03-24T21:40:45.093Z,100524.53
2023-03-24T21:45:54.120Z,100524.34
2023-03-24T21:50:57.842Z,100534.28
2023-03-24T21:56:04.916Z,100514.59
2023-03-24T22:01:07.707Z,100539.13
2023-03-24T22:06:11.235Z,100520.28
2023-03-24T22:11:16.469Z,100522.34
2023-03-24T22:16:18.666Z,100524.63
2023-03-24T22:21:21.555Z,100516.41
2023-03-24T22:26:23.804Z,100528.03
2023-03-24T22:31:26.432Z,100531.53
2023-03-24T22:36:28.573Z,100519.78
2023-03-24T22:41:30.711Z,100533.91
2023-03-24T22:46:32.830Z,100501.81
2023-03-24T22:51:37.185Z,100522.81
2023-03-24T22:56:39.382Z,100492.53
2023-03-24T23:01:41.889Z,100504.56
2023-03-24T23:06:45.932Z,100497.53
2023-03-24T23:11:48.007Z,100501.03
2023-03-24T23:16:50.227Z,100490.44
2023-03-24T23:21:53.393Z,100485.06
2023-03-24T23:26:56.380Z,100488.16
2023-03-24T23:31:58.614Z,100480.50
2023-03-24T23:37:05.362Z,100488.59
2023-03-24T23:42:07.500Z,100470.47
2023-03-24T23:47:09.600Z,100490.34
2023-03-24T23:52:11.866Z,100476.25
2023-03-24T23:57:16.220Z,100459.84
